createdAt,value
2023-04-28T00:03:11.519Z,5.10
2023-04-28T00:07:09.255Z,5.10
2023-04-28T00:11:09.317Z,5.08
2023-04-28T00:15:07.151Z,5.05
2023-04-28T00:19:05.131Z,5.02
2023-04-28T00:23:03.122Z,4.96
2023-04-28T00:27:01.090Z,4.90
2023-04-28T00:30:59.178Z,4.83
2023-04-28T00:34:57.105Z,4.75
2023-04-28T00:38:55.142Z,4.65
2023-04-28T00:42:53.080Z,4.57
2023-04-28T00:46:51.232Z,4.49
2023-04-28T00:50:49.082Z,4.40
2023-04-28T00:54:50.158Z,4.32
2023-04-28T00:58:49.105Z,4.24
2023-04-28T01:02:47.205Z,4.15
2023-04-28T01:06:46.103Z,4.07
2023-04-28T01:10:44.212Z,3.99
2023-04-28T01:14:57.063Z,3.92
2023-04-28T01:19:01.077Z,3.85
2023-04-28T01:23:00.044Z,3.78
2023-04-28T01:27:00.384Z,3.73
2023-04-28T01:30:58.096Z,3.68
2023-04-28T01:34:56.155Z,3.65
2023-04-28T01:38:54.108Z,3.61
2023-04-28T01:42:52.015Z,3.57
2023-04-28T01:46:49.993Z,3.52
2023-04-28T01:50:48.150Z,3.47
2023-04-28T01:54:46.026Z,3.41
2023-04-28T01:58:44.251Z,3.35
2023-04-28T02:02:42.039Z,3.31
2023-04-28T02:06:39.980Z,3.26
2023-04-28T02:10:38.000Z,3.22
2023-04-28T02:14:36.013Z,3.20
2023-04-28T02:18:34.002Z,3.18
2023-04-28T02:22:32.048Z,3.17
2023-04-28T02:26:30.976Z,3.18
2023-04-28T02:30:28.997Z,3.19
2023-04-28T02:34:26.987Z,3.19
2023-04-28T02:38:25.931Z,3.20
2023-04-28T02:42:24.027Z,3.23
2023-04-28T02:46:22.013Z,3.26
2023-04-28T02:50:20.169Z,3.30
2023-04-28T02:54:18.184Z,3.33
2023-04-28T02:58:15.916Z,3.36
2023-04-28T03:02:13.967Z,3.38
2023-04-28T03:06:11.913Z,3.36
2023-04-28T03:10:09.913Z,3.36
2023-04-28T03:14:07.866Z,3.42
2023-04-28T03:18:05.937Z,3.50
2023-04-28T03:22:04.008Z,3.60
2023-04-28T03:26:02.903Z,3.71
2023-04-28T03:30:00.852Z,3.80
2023-04-28T03:33:58.866Z,3.86
2023-04-28T03:37:56.949Z,3.96
2023-04-28T03:41:54.874Z,4.24
2023-04-28T03:45:58.996Z,4.84
2023-04-28T03:49:56.917Z,5.56
2023-04-28T03:53:54.845Z,6.29
2023-04-28T03:57:52.826Z,7.01
2023-04-28T04:01:50.875Z,7.45
2023-04-28T04:05:49.033Z,8.03
2023-04-28T04:09:46.879Z,8.64
2023-04-28T04:13:44.840Z,9.31
2023-04-28T04:17:42.814Z,10.02
2023-04-28T04:21:40.826Z,10.75
2023-04-28T04:25:38.815Z,11.44
2023-04-28T04:29:36.819Z,12.05
2023-04-28T04:33:38.801Z,12.60
2023-04-28T04:37:37.770Z,13.15
2023-04-28T04:41:35.788Z,13.43
2023-04-28T04:45:49.816Z,13.75
2023-04-28T04:49:47.808Z,14.18
2023-04-28T04:53:45.785Z,14.51
2023-04-28T04:57:43.802Z,14.69
2023-04-28T05:01:53.866Z,14.52
2023-04-28T05:05:52.824Z,13.96
2023-04-28T05:09:56.864Z,13.55
2023-04-28T05:13:55.790Z,13.34
2023-04-28T05:17:54.372Z,13.02
2023-04-28T05:21:53.780Z,12.06
2023-04-28T05:25:51.787Z,11.64
2023-04-28T05:29:49.743Z,11.70
2023-04-28T05:33:47.751Z,11.32
2023-04-28T05:37:45.803Z,11.11
2023-04-28T05:41:43.753Z,11.07
2023-04-28T05:45:43.913Z,10.70
2023-04-28T05:49:41.691Z,10.62
2023-04-28T05:53:39.762Z,10.66
2023-04-28T05:57:49.265Z,10.84
2023-04-28T06:01:32.851Z,11.10
2023-04-28T06:04:57.212Z,11.27
2023-04-28T06:08:21.819Z,11.36
2023-04-28T06:11:46.824Z,11.32
2023-04-28T06:15:11.590Z,11.44
2023-04-28T06:18:36.401Z,11.57
2023-04-28T06:22:01.082Z,11.67
2023-04-28T06:25:25.408Z,11.64
2023-04-28T06:28:49.206Z,11.33
2023-04-28T06:32:13.109Z,11.00
2023-04-28T06:35:39.195Z,10.80
2023-04-28T06:39:03.074Z,10.57
2023-04-28T06:42:27.677Z,10.63
2023-04-28T06:46:02.848Z,10.82
2023-04-28T06:49:26.798Z,10.77
2023-04-28T06:52:57.405Z,10.48
2023-04-28T06:56:21.833Z,10.47
2023-04-28T06:59:47.296Z,10.70
2023-04-28T07:03:11.608Z,11.00
2023-04-28T07:06:36.088Z,11.32
2023-04-28T07:10:01.165Z,11.46
2023-04-28T07:13:25.320Z,11.50
2023-04-28T07:16:49.201Z,11.25
2023-04-28T07:20:14.076Z,11.07
2023-04-28T07:23:40.444Z,11.00
2023-04-28T07:27:04.687Z,10.95
2023-04-28T07:30:28.550Z,11.23
2023-04-28T07:33:52.645Z,11.62
2023-04-28T07:37:18.256Z,11.65
2023-04-28T07:40:44.457Z,11.29
2023-04-28T07:44:08.806Z,11.30
2023-04-28T07:47:32.786Z,11.66
2023-04-28T07:50:56.757Z,11.70
2023-04-28T07:54:20.893Z,11.60
2023-04-28T07:57:44.719Z,11.76
2023-04-28T08:01:08.749Z,11.93
2023-04-28T08:04:35.019Z,11.99
2023-04-28T08:08:00.598Z,12.04
2023-04-28T08:11:24.578Z,12.13
2023-04-28T08:14:48.690Z,12.22
2023-04-28T08:18:13.893Z,12.27
2023-04-28T08:21:37.861Z,12.33
2023-04-28T08:25:01.766Z,12.16
2023-04-28T08:28:25.622Z,12.17
2023-04-28T08:31:49.756Z,12.40
2023-04-28T08:35:15.518Z,12.51
2023-04-28T08:38:39.917Z,12.58
2023-04-28T08:42:06.973Z,12.66
2023-04-28T08:45:31.974Z,12.84
2023-04-28T08:49:02.231Z,13.03
2023-04-28T08:52:27.796Z,13.22
2023-04-28T08:55:58.705Z,13.45
2023-04-28T08:59:22.849Z,13.63
2023-04-28T09:02:46.871Z,14.01
2023-04-28T09:06:10.864Z,14.39
2023-04-28T09:09:37.135Z,14.61
2023-04-28T09:13:02.976Z,14.75
2023-04-28T09:16:41.576Z,14.91
2023-04-28T09:20:27.832Z,15.03
2023-04-28T09:23:52.209Z,14.70
2023-04-28T09:27:16.149Z,14.59
2023-04-28T09:30:41.390Z,14.74
2023-04-28T09:34:05.813Z,14.84
2023-04-28T09:37:31.308Z,14.99
2023-04-28T09:41:00.749Z,15.07
2023-04-28T09:44:24.824Z,15.36
2023-04-28T09:47:48.997Z,15.61
2023-04-28T09:51:13.293Z,15.70
2023-04-28T09:54:37.365Z,15.44
2023-04-28T09:58:08.067Z,15.06
2023-04-28T10:01:38.126Z,14.52
2023-04-28T10:05:02.455Z,13.99
2023-04-28T10:08:28.404Z,14.05
2023-04-28T10:11:52.691Z,14.06
2023-04-28T10:15:16.701Z,14.09
2023-04-28T10:18:41.204Z,14.30
2023-04-28T10:22:26.504Z,14.69
2023-04-28T10:26:08.884Z,15.00
2023-04-28T10:29:36.704Z,14.99
2023-04-28T10:33:16.320Z,15.18
2023-04-28T10:36:55.569Z,15.04
2023-04-28T10:40:41.281Z,14.90
2023-04-28T10:44:30.192Z,14.88
2023-04-28T10:48:06.576Z,14.96
2023-04-28T10:51:32.080Z,15.08
2023-04-28T10:55:22.047Z,15.24
2023-04-28T10:58:47.813Z,15.40
2023-04-28T11:02:42.627Z,15.65
2023-04-28T11:06:40.269Z,15.64
2023-04-28T11:10:04.278Z,15.28
2023-04-28T11:13:31.926Z,15.02
2023-04-28T11:17:00.719Z,14.95
2023-04-28T11:20:26.466Z,14.85
2023-04-28T11:23:50.655Z,14.31
2023-04-28T11:27:25.014Z,14.06
2023-04-28T11:30:49.008Z,14.22
2023-04-28T11:34:14.556Z,14.51
2023-04-28T11:37:39.190Z,14.65
2023-04-28T11:41:04.297Z,14.98
2023-04-28T11:44:30.920Z,15.56
2023-04-28T11:47:55.045Z,15.87
2023-04-28T11:51:41.708Z,15.16
2023-04-28T11:55:05.745Z,14.55
2023-04-28T11:58:29.679Z,14.35
2023-04-28T12:01:57.276Z,14.44
2023-04-28T12:05:22.690Z,14.56
2023-04-28T12:08:46.664Z,14.90
2023-04-28T12:12:17.239Z,15.75
2023-04-28T12:15:42.110Z,16.65
2023-04-28T12:19:10.099Z,17.35
2023-04-28T12:22:46.000Z,17.76
2023-04-28T12:26:10.223Z,18.11
2023-04-28T12:29:39.534Z,17.77
2023-04-28T12:33:04.503Z,17.25
2023-04-28T12:36:28.452Z,17.11
2023-04-28T12:39:52.207Z,16.71
2023-04-28T12:43:16.333Z,16.03
2023-04-28T12:46:41.265Z,15.84
2023-04-28T12:50:08.424Z,15.89
2023-04-28T12:53:32.348Z,15.84
2023-04-28T12:56:56.409Z,15.57
2023-04-28T13:00:23.365Z,15.76
2023-04-28T13:03:48.505Z,16.27
2023-04-28T13:07:13.261Z,16.54
2023-04-28T13:10:37.119Z,17.01
2023-04-28T13:14:01.065Z,17.51
2023-04-28T13:17:25.138Z,17.54
2023-04-28T13:20:48.984Z,17.62
2023-04-28T13:24:13.961Z,17.51
2023-04-28T13:27:38.868Z,17.69
2023-04-28T13:31:24.333Z,17.55
2023-04-28T13:35:22.266Z,17.74
2023-04-28T13:39:21.262Z,17.87
2023-04-28T13:43:19.196Z,17.65
2023-04-28T13:47:17.223Z,17.40
2023-04-28T13:51:15.311Z,16.98
2023-04-28T13:55:13.166Z,16.83
2023-04-28T13:59:12.287Z,16.79
2023-04-28T14:03:10.292Z,16.55
2023-04-28T14:07:09.157Z,16.08
2023-04-28T14:11:08.296Z,15.84
2023-04-28T14:15:07.204Z,16.07
2023-04-28T14:19:05.202Z,16.14
2023-04-28T14:23:03.134Z,16.12
2023-04-28T14:27:02.215Z,16.42
2023-04-28T14:31:00.165Z,17.30
2023-04-28T14:34:58.104Z,17.73
2023-04-28T14:38:58.186Z,18.13
2023-04-28T14:42:56.110Z,18.33
2023-04-28T14:46:54.132Z,18.74
2023-04-28T14:50:53.087Z,19.30
2023-04-28T14:54:51.149Z,19.74
2023-04-28T14:58:50.150Z,19.46
2023-04-28T15:02:48.255Z,19.55
2023-04-28T15:06:47.299Z,19.80
2023-04-28T15:10:52.105Z,19.89
2023-04-28T15:14:51.283Z,19.89
2023-04-28T15:18:49.132Z,19.98
2023-04-28T15:22:47.140Z,20.07
2023-04-28T15:26:45.135Z,19.68
2023-04-28T15:30:43.095Z,19.14
2023-04-28T15:34:41.081Z,19.34
2023-04-28T15:38:39.042Z,19.50
2023-04-28T15:42:37.247Z,19.56
2023-04-28T15:46:36.134Z,19.70
2023-04-28T15:50:41.146Z,19.53
2023-04-28T15:54:39.161Z,18.89
2023-04-28T15:58:37.341Z,18.56
2023-04-28T16:02:36.199Z,18.47
2023-04-28T16:06:34.056Z,18.49
2023-04-28T16:10:32.092Z,18.02
2023-04-28T16:14:30.064Z,17.52
2023-04-28T16:18:28.018Z,16.99
2023-04-28T16:22:26.081Z,16.49
2023-04-28T16:26:23.995Z,16.17
2023-04-28T16:30:23.069Z,15.77
2023-04-28T16:34:20.998Z,15.43
2023-04-28T16:38:20.041Z,15.15
2023-04-28T16:42:18.131Z,14.88
2023-04-28T16:46:16.156Z,14.65
2023-04-28T16:50:16.263Z,14.40
2023-04-28T16:54:14.066Z,14.14
2023-04-28T16:58:11.976Z,13.96
2023-04-28T17:02:14.043Z,13.69
2023-04-28T17:06:11.945Z,13.31
2023-04-28T17:10:11.097Z,12.92
2023-04-28T17:14:09.082Z,12.63
2023-04-28T17:18:07.158Z,12.37
2023-04-28T17:22:04.999Z,12.12
2023-04-28T17:26:03.952Z,11.86
2023-04-28T17:30:01.962Z,11.64
2023-04-28T17:34:00.014Z,11.37
2023-04-28T17:37:57.978Z,11.14
2023-04-28T17:41:56.060Z,10.97
2023-04-28T17:45:53.961Z,10.81
2023-04-28T17:49:52.987Z,10.65
2023-04-28T17:53:51.944Z,10.46
2023-04-28T17:57:50.052Z,10.28
2023-04-28T18:01:47.941Z,10.13
2023-04-28T18:05:45.957Z,9.99
2023-04-28T18:09:43.961Z,9.84
2023-04-28T18:13:41.916Z,9.70
2023-04-28T18:17:40.079Z,9.61
2023-04-28T18:21:38.898Z,9.52
2023-04-28T18:25:38.945Z,9.42
2023-04-28T18:29:36.871Z,9.33
2023-04-28T18:33:34.906Z,9.22
2023-04-28T18:37:32.932Z,9.11
2023-04-28T18:41:32.830Z,9.01
2023-04-28T18:45:30.952Z,8.91
2023-04-28T18:49:28.875Z,8.84
2023-04-28T18:53:27.974Z,8.71
2023-04-28T18:57:25.888Z,8.56
2023-04-28T19:01:31.000Z,8.49
2023-04-28T19:05:28.873Z,8.43
2023-04-28T19:09:29.820Z,8.40
2023-04-28T19:13:27.900Z,8.34
2023-04-28T19:49:25.100Z,8.03
2023-04-28T19:53:23.099Z,8.00
2023-04-28T19:57:21.134Z,7.96
2023-04-28T20:01:21.083Z,7.92
2023-04-28T20:05:19.099Z,7.87
2023-04-28T20:09:17.035Z,7.81
2023-04-28T20:13:15.114Z,7.74
2023-04-28T20:17:14.112Z,7.68
2023-04-28T20:21:12.033Z,7.61
2023-04-28T20:25:13.093Z,7.54
2023-04-28T20:29:12.169Z,7.49
2023-04-28T20:33:10.020Z,7.46
2023-04-28T20:37:11.033Z,7.43
2023-04-28T20:41:09.171Z,7.40
2023-04-28T20:45:06.988Z,7.40
2023-04-28T20:49:04.954Z,7.39
2023-04-28T20:53:03.102Z,7.37
2023-04-28T20:57:00.967Z,7.34
2023-04-28T21:00:58.992Z,7.30
2023-04-28T21:04:58.010Z,7.25
2023-04-28T21:08:56.020Z,7.19
2023-04-28T21:12:53.987Z,7.15
2023-04-28T21:16:52.081Z,7.07
2023-04-28T21:20:49.951Z,7.00
2023-04-28T21:24:48.028Z,6.94
2023-04-28T21:28:46.932Z,6.90
2023-04-28T21:32:44.956Z,6.86
2023-04-28T21:36:42.985Z,6.81
2023-04-28T21:40:41.082Z,6.77
2023-04-28T21:44:38.961Z,6.70
2023-04-28T21:48:36.930Z,6.65
2023-04-28T21:52:34.960Z,6.60
2023-04-28T21:56:32.936Z,6.55
2023-04-28T22:00:30.883Z,6.51
2023-04-28T22:04:31.177Z,6.44
2023-04-28T22:08:28.868Z,6.35
2023-04-28T22:12:27.068Z,6.26
2023-04-28T22:16:25.023Z,6.15
2023-04-28T22:20:22.927Z,6.06
2023-04-28T22:24:20.861Z,5.99
2023-04-28T22:28:20.882Z,5.90
2023-04-28T22:32:18.947Z,5.85
2023-04-28T22:36:17.897Z,5.81
2023-04-28T22:40:15.832Z,5.80
2023-04-28T22:44:13.875Z,5.77
2023-04-28T22:48:11.892Z,5.76
2023-04-28T22:52:09.816Z,5.77
2023-04-28T22:56:09.844Z,5.76
2023-04-28T23:00:09.823Z,5.74
2023-04-28T23:04:07.985Z,5.73
2023-04-28T23:08:05.812Z,5.72
2023-04-28T23:12:03.803Z,5.71
2023-04-28T23:16:01.865Z,5.69
2023-04-28T23:19:59.979Z,5.68
2023-04-28T23:23:59.939Z,5.62
2023-04-28T23:27:57.871Z,5.60
2023-04-28T23:31:58.925Z,5.56
2023-04-28T23:35:56.795Z,5.52
2023-04-28T23:39:54.882Z,5.47
2023-04-28T23:43:54.798Z,5.43
2023-04-28T23:47:52.836Z,5.37
2023-04-28T23:51:50.763Z,5.32
2023-04-28T23:55:48.850Z,5.28
2023-04-28T23:59:48.696Z,5.23
